Time;durP1;ratioP1;P1;durP2;ratioP2;P2;SDS_P1;SDS_P2;PMS_P1;PMS_P2;Temp;Humidity;BMP_temperature;BMP_pressure;BME280_temperature;BME280_humidity;BME280_pressure;Samples;Min_cycle;Max_cycle;Signal;HPM_P1;HPM_P2
2021/05/11 00:01:46;;;;;;;7.90;6.15;;;15.60;99.90;;;;;;4971880;28;20042;-73
2021/05/11 00:04:13;;;;;;;7.32;5.90;;;15.50;99.90;;;;;;4972124;28;20034;-64
2021/05/11 00:06:39;;;;;;;7.07;6.47;;;15.60;99.90;;;;;;4971666;28;20065;-63
2021/05/11 00:09:06;;;;;;;6.82;6.18;;;15.60;99.90;;;;;;4971609;28;20030;-63
2021/05/11 00:11:32;;;;;;;7.78;7.03;;;15.60;99.90;;;;;;4956209;28;20026;-64
2021/05/11 00:13:58;;;;;;;8.57;7.78;;;15.60;99.90;;;;;;4973209;28;20023;-64
2021/05/11 00:16:23;;;;;;;7.57;6.47;;;15.50;99.90;;;;;;4973182;28;20065;-63
2021/05/11 00:18:49;;;;;;;7.70;7.00;;;15.50;99.90;;;;;;4954851;28;20031;-63
2021/05/11 00:21:15;;;;;;;8.70;7.82;;;15.50;99.90;;;;;;4955558;28;20436;-63
2021/05/11 00:23:40;;;;;;;8.80;6.93;;;15.50;99.90;;;;;;4951926;29;20413;-63
2021/05/11 00:26:06;;;;;;;7.35;6.65;;;15.50;99.90;;;;;;4952633;29;20038;-63
2021/05/11 00:28:32;;;;;;;8.77;7.80;;;15.60;99.90;;;;;;4953568;28;20023;-63
2021/05/11 00:30:57;;;;;;;7.68;6.88;;;15.50;99.90;;;;;;4952477;28;20389;-63
2021/05/11 00:33:23;;;;;;;8.02;7.22;;;15.60;99.90;;;;;;4953214;29;20465;-63
2021/05/11 00:35:49;;;;;;;9.93;8.35;;;15.50;99.90;;;;;;4950818;29;20346;-72
2021/05/11 00:38:14;;;;;;;8.75;7.78;;;15.50;99.90;;;;;;4952644;28;20042;-65
2021/05/11 00:40:40;;;;;;;11.68;8.30;;;15.60;99.90;;;;;;4960818;28;20027;-63
2021/05/11 00:43:06;;;;;;;9.50;8.55;;;15.50;99.90;;;;;;4964687;28;20041;-63
2021/05/11 00:45:32;;;;;;;10.68;9.57;;;15.50;99.90;;;;;;4970651;28;20172;-63
2021/05/11 00:47:57;;;;;;;11.05;9.38;;;15.40;99.90;;;;;;4969581;28;20061;-63
2021/05/11 00:50:23;;;;;;;9.85;8.82;;;15.50;99.90;;;;;;4972373;28;20103;-62
2021/05/11 00:52:49;;;;;;;10.70;9.57;;;15.50;99.90;;;;;;4970210;28;20050;-70
2021/05/11 00:55:15;;;;;;;12.18;8.95;;;15.50;99.90;;;;;;4970646;28;20439;-62
2021/05/11 00:57:41;;;;;;;9.85;8.70;;;15.50;99.90;;;;;;4970949;28;20154;-62
2021/05/11 01:00:09;;;;;;;10.30;9.30;;;15.50;99.90;;;;;;4971740;28;20062;-63
2021/05/11 01:09:19;;;;;;;10.98;8.43;;;15.40;99.90;;;;;;4972087;28;20105;-62
2021/05/11 01:11:46;;;;;;;12.38;9.77;;;15.40;99.90;;;;;;4970490;28;20453;-63
2021/05/11 01:14:12;;;;;;;10.57;9.02;;;15.50;99.90;;;;;;4971393;28;20175;-63
2021/05/11 01:16:38;;;;;;;9.60;8.13;;;15.50;99.90;;;;;;4969952;28;20039;-63
2021/05/11 01:24:09;;;;;;;12.07;9.90;;;15.40;99.90;;;;;;4979628;28;20430;-63
2021/05/11 01:50:34;;;;;;;16.15;13.65;;;15.10;99.90;;;;;;4990614;28;20030;-63
2021/05/11 02:22:46;;;;;;;6.63;5.78;;;15.10;99.90;;;;;;4990273;28;20045;-63
2021/05/11 02:25:15;;;;;;;6.68;5.93;;;15.00;99.90;;;;;;4972381;28;20058;-62
2021/05/11 02:27:43;;;;;;;6.60;5.90;;;15.00;99.90;;;;;;4972489;28;20030;-63
2021/05/11 02:30:09;;;;;;;6.18;5.55;;;15.00;99.90;;;;;;4989705;28;20109;-63
2021/05/11 02:32:40;;;;;;;6.55;5.88;;;15.00;99.90;;;;;;4989883;28;20117;-63
2021/05/11 02:35:07;;;;;;;5.85;5.22;;;15.00;99.90;;;;;;4971943;28;20368;-62
2021/05/11 02:37:33;;;;;;;5.55;5.00;;;15.00;99.90;;;;;;4990306;28;20031;-63
2021/05/11 02:39:58;;;;;;;5.72;5.15;;;14.80;99.90;;;;;;4972120;28;20109;-63
2021/05/11 02:42:24;;;;;;;6.13;5.22;;;14.90;99.90;;;;;;4972852;28;20102;-64
2021/05/11 02:44:51;;;;;;;7.78;5.50;;;14.90;99.90;;;;;;4990086;28;20437;-63
2021/05/11 02:47:16;;;;;;;6.72;6.05;;;14.90;99.90;;;;;;4971972;28;20448;-63
2021/05/11 02:49:47;;;;;;;9.00;6.20;;;15.00;99.90;;;;;;4972505;28;20058;-62
2021/05/11 02:52:13;;;;;;;7.82;6.15;;;15.00;99.90;;;;;;4971571;28;20102;-62
2021/05/11 02:54:38;;;;;;;7.82;6.32;;;14.90;99.90;;;;;;4990108;28;20113;-62
2021/05/11 02:57:05;;;;;;;5.40;4.90;;;14.80;99.90;;;;;;4971808;28;20433;-63
2021/05/11 02:59:31;;;;;;;6.85;6.00;;;14.80;99.90;;;;;;4972443;28;20126;-63
2021/05/11 03:01:56;;;;;;;6.95;5.45;;;14.80;99.90;;;;;;4989748;28;20113;-71
2021/05/11 03:04:22;;;;;;;4.95;4.45;;;14.80;99.90;;;;;;4972211;28;20204;-62
2021/05/11 03:06:48;;;;;;;5.10;4.30;;;14.90;99.90;;;;;;4989931;28;20045;-63
2021/05/11 03:09:14;;;;;;;4.28;3.67;;;14.90;99.90;;;;;;4971898;28;20117;-62
2021/05/11 03:11:40;;;;;;;4.97;4.25;;;14.90;99.90;;;;;;4972490;28;20197;-63
2021/05/11 03:14:06;;;;;;;4.50;4.10;;;14.90;99.90;;;;;;4989027;28;20113;-63
2021/05/11 03:16:34;;;;;;;6.38;4.80;;;14.80;99.90;;;;;;4972151;28;20039;-63
2021/05/11 03:18:59;;;;;;;6.25;5.32;;;14.70;99.90;;;;;;4989332;28;20023;-62
2021/05/11 03:21:25;;;;;;;7.22;5.88;;;14.60;99.90;;;;;;4990007;28;20057;-63
2021/05/11 03:23:51;;;;;;;9.63;5.70;;;14.60;99.90;;;;;;4989915;28;20053;-63
2021/05/11 03:26:16;;;;;;;5.93;5.10;;;14.80;99.90;;;;;;4989076;28;20110;-63
2021/05/11 03:28:42;;;;;;;6.65;5.85;;;14.80;99.90;;;;;;4991493;28;20049;-63
2021/05/11 03:31:07;;;;;;;6.10;5.50;;;14.80;99.90;;;;;;4975108;28;20034;-63
2021/05/11 03:33:33;;;;;;;6.63;5.40;;;14.80;99.90;;;;;;4993257;28;20031;-62
2021/05/11 03:35:59;;;;;;;6.45;5.80;;;14.70;99.90;;;;;;4975121;28;20110;-66
2021/05/11 03:38:24;;;;;;;5.97;5.00;;;14.70;99.90;;;;;;4975731;28;20022;-63
2021/05/11 03:40:51;;;;;;;5.13;4.22;;;14.70;99.90;;;;;;4993386;28;20026;-63
2021/05/11 03:43:22;;;;;;;4.63;4.13;;;14.80;99.90;;;;;;4992473;28;20033;-62
2021/05/11 03:45:57;;;;;;;5.83;4.03;;;14.80;99.90;;;;;;4993221;28;20030;-62
2021/05/11 03:48:23;;;;;;;4.30;3.90;;;14.80;99.90;;;;;;4974696;28;20057;-63
2021/05/11 03:50:49;;;;;;;6.10;3.40;;;14.80;99.90;;;;;;4975117;28;20498;-62
2021/05/11 03:53:14;;;;;;;5.57;3.13;;;14.90;99.90;;;;;;4974909;28;20022;-63
2021/05/11 03:55:40;;;;;;;5.05;3.30;;;14.90;99.90;;;;;;4992475;28;20042;-62
2021/05/11 03:58:06;;;;;;;4.75;3.20;;;14.70;99.90;;;;;;4974644;28;20096;-62
2021/05/11 04:00:31;;;;;;;3.85;3.05;;;14.70;99.90;;;;;;4975296;28;20037;-63
2021/05/11 04:02:57;;;;;;;3.30;2.95;;;14.70;99.90;;;;;;4975195;28;20026;-63
2021/05/11 04:05:23;;;;;;;4.32;3.10;;;14.70;99.90;;;;;;4974407;28;20038;-63
2021/05/11 04:07:52;;;;;;;3.00;2.70;;;14.80;99.90;;;;;;4975117;28;20061;-64
2021/05/11 04:18:08;;;;;;;4.57;3.13;;;14.70;99.90;;;;;;4991764;28;20025;-62
2021/05/11 04:20:34;;;;;;;2.60;2.30;;;14.70;99.90;;;;;;4974799;28;20030;-63
2021/05/11 04:22:59;;;;;;;2.75;2.10;;;14.60;99.90;;;;;;4992463;28;20034;-63
2021/05/11 04:25:25;;;;;;;2.67;2.03;;;14.60;99.90;;;;;;4991751;28;20030;-63
2021/05/11 04:27:51;;;;;;;5.20;2.63;;;14.70;99.90;;;;;;4974684;28;20056;-63
2021/05/11 04:30:19;;;;;;;3.72;2.42;;;14.70;99.90;;;;;;4992043;28;20076;-63
2021/05/11 04:32:44;;;;;;;3.40;2.58;;;14.80;99.90;;;;;;4974670;28;20432;-63
2021/05/11 04:35:10;;;;;;;5.28;2.45;;;14.90;99.90;;;;;;4991791;28;20081;-62
2021/05/11 04:37:36;;;;;;;4.13;2.67;;;14.90;99.90;;;;;;4992157;28;20114;-63
2021/05/11 04:40:02;;;;;;;3.90;2.65;;;14.90;99.90;;;;;;4991456;28;20463;-69
2021/05/11 04:42:28;;;;;;;3.58;2.70;;;14.80;99.90;;;;;;4991282;28;20027;-62
2021/05/11 04:44:55;;;;;;;13.32;3.92;;;14.80;99.90;;;;;;4974337;28;20332;-61
2021/05/11 04:47:28;;;;;;;4.45;3.50;;;14.80;99.90;;;;;;4990907;28;20027;-62
2021/05/11 04:49:55;;;;;;;5.82;4.07;;;14.80;99.90;;;;;;4992088;28;20053;-63
2021/05/11 04:52:22;;;;;;;6.40;3.63;;;14.90;99.90;;;;;;4990830;28;20030;-62
2021/05/11 04:54:48;;;;;;;5.38;3.40;;;15.00;99.90;;;;;;4973659;28;20042;-62
2021/05/11 04:57:13;;;;;;;4.57;3.20;;;15.00;99.90;;;;;;4990718;28;20042;-63
2021/05/11 04:59:39;;;;;;;2.65;2.45;;;15.10;99.90;;;;;;4992116;28;20031;-63
2021/05/11 05:02:05;;;;;;;4.55;3.15;;;15.20;99.90;;;;;;4973387;28;20018;-63
2021/05/11 05:04:33;;;;;;;3.97;3.00;;;15.30;99.90;;;;;;4991704;28;20060;-63
2021/05/11 05:06:59;;;;;;;5.63;3.38;;;15.10;99.90;;;;;;4973783;28;20081;-62
2021/05/11 05:09:24;;;;;;;4.88;3.58;;;15.20;99.90;;;;;;4973462;28;20058;-64
2021/05/11 05:11:50;;;;;;;6.78;4.03;;;15.20;99.90;;;;;;4973895;28;20034;-62
2021/05/11 05:14:16;;;;;;;2.47;2.28;;;15.20;99.90;;;;;;4973223;28;20022;-63
2021/05/11 05:16:41;;;;;;;4.63;3.72;;;15.10;99.90;;;;;;4991022;28;20046;-62
2021/05/11 05:19:07;;;;;;;5.60;4.75;;;15.00;99.90;;;;;;4990550;28;20471;-63
2021/05/11 05:21:34;;;;;;;4.18;3.75;;;15.10;99.90;;;;;;4973676;28;20034;-64
2021/05/11 05:24:13;;;;;;;5.88;4.18;;;15.20;99.90;;;;;;4991228;28;20069;-63
2021/05/11 05:26:39;;;;;;;6.55;4.65;;;15.10;99.90;;;;;;4973943;28;20456;-63
2021/05/11 05:29:05;;;;;;;5.50;4.88;;;15.00;99.90;;;;;;4988999;28;20034;-65
2021/05/11 05:31:31;;;;;;;6.38;5.55;;;15.10;99.90;;;;;;4976234;28;20130;-67
2021/05/11 05:33:57;;;;;;;10.18;6.63;;;15.10;99.90;;;;;;4971270;28;20423;-63
2021/05/11 05:36:23;;;;;;;9.15;7.43;;;15.00;99.90;;;;;;4953454;28;20457;-64
2021/05/11 05:38:49;;;;;;;9.35;7.70;;;15.20;99.90;;;;;;4954220;28;20039;-65
2021/05/11 05:41:34;;;;;;;32.55;12.43;;;15.30;99.90;;;;;;4953360;28;20114;-63
2021/05/11 05:44:00;;;;;;;13.75;8.25;;;15.80;99.90;;;;;;4953940;28;20388;-61
2021/05/11 05:46:26;;;;;;;11.43;7.93;;;15.40;99.90;;;;;;4936583;28;20205;-63
2021/05/11 05:48:51;;;;;;;12.20;8.73;;;15.60;99.90;;;;;;4971260;28;20397;-61
2021/05/11 05:51:19;;;;;;;9.35;7.18;;;15.60;99.90;;;;;;4950762;28;20058;-64
2021/05/11 05:53:44;;;;;;;8.40;6.05;;;15.70;99.90;;;;;;4969427;28;20023;-65
2021/05/11 05:56:13;;;;;;;8.57;7.07;;;16.10;99.90;;;;;;4968558;28;20039;-65
2021/05/11 05:58:39;;;;;;;11.13;7.85;;;16.20;99.90;;;;;;4951874;28;20023;-63
2021/05/11 06:01:08;;;;;;;11.13;8.15;;;16.10;99.90;;;;;;4951686;28;20078;-63
2021/05/11 06:03:40;;;;;;;13.18;8.38;;;16.00;99.90;;;;;;4950615;28;20144;-74
2021/05/11 06:06:10;;;;;;;12.73;8.27;;;15.70;99.90;;;;;;4932812;29;20034;-64
2021/05/11 06:08:38;;;;;;;11.98;7.90;;;15.40;99.90;;;;;;4950601;29;20037;-64
2021/05/11 06:11:19;;;;;;;11.73;8.20;;;15.50;99.90;;;;;;4949523;28;20416;-63
2021/05/11 06:19:15;;;;;;;9.77;7.40;;;15.80;99.90;;;;;;4969302;28;20134;-65
2021/05/11 06:21:41;;;;;;;8.63;6.45;;;15.90;99.90;;;;;;4951842;28;20027;-63
2021/05/11 06:24:08;;;;;;;8.38;4.90;;;15.90;99.90;;;;;;4951249;28;20133;-73
2021/05/11 06:26:34;;;;;;;5.28;3.80;;;15.90;99.90;;;;;;4951891;28;20054;-67
2021/05/11 06:29:01;;;;;;;4.00;3.45;;;15.90;99.90;;;;;;4951702;28;20030;-65
2021/05/11 06:31:27;;;;;;;4.00;3.17;;;16.10;99.90;;;;;;4950211;28;20476;-66
2021/05/11 06:33:54;;;;;;;2.97;2.65;;;15.90;99.90;;;;;;4969725;28;20041;-65
2021/05/11 06:36:19;;;;;;;2.00;1.90;;;16.00;99.90;;;;;;4951558;28;20152;-63
2021/05/11 06:38:45;;;;;;;2.88;2.55;;;16.00;99.90;;;;;;4952352;28;20031;-65
2021/05/11 06:41:12;;;;;;;2.88;2.10;;;16.10;99.90;;;;;;4968571;28;20026;-63
2021/05/11 06:43:40;;;;;;;2.13;1.92;;;15.90;99.90;;;;;;4969351;28;20483;-63
2021/05/11 06:49:26;;;;;;;2.80;2.20;;;15.90;99.90;;;;;;4916029;28;20119;-65
2021/05/11 06:54:13;;;;;;;2.95;1.70;;;15.90;99.90;;;;;;4968504;28;20052;-65
2021/05/11 06:56:43;;;;;;;3.33;2.00;;;16.00;99.90;;;;;;4969613;28;20061;-62
2021/05/11 06:59:09;;;;;;;3.35;2.22;;;15.80;99.90;;;;;;4968791;28;20110;-57
2021/05/11 07:01:35;;;;;;;2.80;1.73;;;16.00;99.90;;;;;;4969145;28;20397;-58
2021/05/11 07:04:01;;;;;;;2.75;1.92;;;16.10;99.90;;;;;;4971711;28;20035;-57
2021/05/11 07:06:26;;;;;;;2.63;1.65;;;16.30;99.90;;;;;;4955064;28;20191;-65
2021/05/11 07:09:00;;;;;;;5.63;2.22;;;16.30;99.90;;;;;;4973446;28;20356;-64
2021/05/11 07:13:07;;;;;;;2.83;2.22;;;16.30;99.90;;;;;;4971454;28;20027;-64
2021/05/11 07:14:11;;;;;;;5.00;2.08;;;16.20;99.90;;;;;;4970339;28;20033;-63
2021/05/11 07:16:36;;;;;;;4.80;2.38;;;16.10;99.90;;;;;;4954345;28;20042;-63
2021/05/11 07:19:02;;;;;;;5.55;2.20;;;16.00;99.90;;;;;;4955194;28;20034;-64
2021/05/11 07:21:28;;;;;;;2.97;1.95;;;16.20;99.90;;;;;;4971823;28;20038;-63
2021/05/11 07:23:53;;;;;;;2.83;2.03;;;16.40;99.90;;;;;;4954881;28;20085;-63
2021/05/11 07:31:12;;;;;;;4.30;2.33;;;16.20;99.90;;;;;;4970777;28;20129;-63
2021/05/11 07:33:47;;;;;;;1.95;1.75;;;16.20;99.90;;;;;;4954505;28;20404;-64
2021/05/11 07:36:13;;;;;;;2.75;2.30;;;16.20;99.90;;;;;;4953737;28;20130;-63
2021/05/11 07:38:39;;;;;;;8.05;4.95;;;16.20;99.90;;;;;;4972523;28;20067;-65
2021/05/11 07:41:07;;;;;;;10.32;8.65;;;16.20;99.90;;;;;;4972019;28;20137;-64
2021/05/11 07:43:36;;;;;;;11.93;9.13;;;16.30;99.90;;;;;;4954855;28;20466;-64
2021/05/11 08:03:12;;;;;;;9.18;8.20;;;16.60;99.90;;;;;;4945838;28;20094;-64
2021/05/11 08:05:42;;;;;;;12.10;6.97;;;16.60;99.90;;;;;;4970157;28;20118;-63
2021/05/11 08:14:28;;;;;;;11.80;6.53;;;16.70;99.90;;;;;;4971215;28;20041;-64
2021/05/11 08:16:24;;;;;;;10.43;6.80;;;16.80;99.90;;;;;;4970487;28;20046;-69
2021/05/11 08:19:03;;;;;;;8.38;7.05;;;16.90;99.90;;;;;;4971748;28;20380;-65
2021/05/11 08:29:24;;;;;;;6.28;5.50;;;16.90;99.90;;;;;;4980743;28;20117;-64
2021/05/11 08:31:49;;;;;;;9.35;6.05;;;17.10;99.90;;;;;;4961696;28;20168;-64
2021/05/11 08:34:15;;;;;;;6.50;5.47;;;17.30;99.90;;;;;;4979270;28;20098;-64
2021/05/11 08:36:41;;;;;;;5.18;4.35;;;17.30;99.90;;;;;;4960348;28;20390;-64
2021/05/11 08:39:07;;;;;;;6.28;4.93;;;17.40;99.90;;;;;;4977376;28;20030;-65
2021/05/11 08:41:33;;;;;;;7.55;5.35;;;17.60;99.90;;;;;;4979089;28;20471;-63
2021/05/11 08:43:58;;;;;;;5.63;5.07;;;17.80;99.90;;;;;;4976993;28;20043;-67
2021/05/11 08:46:24;;;;;;;7.20;6.38;;;17.80;99.90;;;;;;4979069;28;20113;-64
2021/05/11 08:48:51;;;;;;;6.57;5.25;;;17.80;99.90;;;;;;4979296;28;20030;-67
2021/05/11 08:51:31;;;;;;;7.93;5.18;;;17.80;99.90;;;;;;4961664;28;20034;-66
2021/05/11 09:27:00;;;;;;;3.95;2.33;;;19.00;99.90;;;;;;4979392;28;20061;-66
2021/05/11 09:59:35;;;;;;;1.83;1.20;;;19.80;99.90;;;;;;4973644;28;20054;-70
2021/05/11 10:46:59;;;;;;;2.88;0.50;;;20.60;99.90;;;;;;4972455;28;20037;-63
2021/05/11 10:49:25;;;;;;;1.85;0.77;;;20.80;99.90;;;;;;4954680;28;20077;-63
2021/05/11 10:55:09;;;;;;;0.82;0.50;;;20.60;99.90;;;;;;4972013;28;20034;-62
2021/05/11 10:58:04;;;;;;;1.23;0.63;;;20.50;99.90;;;;;;4953481;28;20042;-62
2021/05/11 11:00:40;;;;;;;7.10;3.10;;;20.30;99.90;;;;;;4953718;28;20033;-65
2021/05/11 11:03:12;;;;;;;4.22;0.80;;;20.40;99.90;;;;;;4954812;28;20038;-69
2021/05/11 11:05:45;;;;;;;3.20;0.80;;;20.20;99.90;;;;;;4954387;28;20045;-65
2021/05/11 11:08:39;;;;;;;0.95;0.70;;;20.10;99.90;;;;;;4971334;28;20075;-74
2021/05/11 11:11:13;;;;;;;1.73;1.00;;;19.70;99.90;;;;;;4954087;28;20027;-66
2021/05/11 11:13:45;;;;;;;4.72;1.98;;;19.60;99.90;;;;;;4954043;28;20440;-64
2021/05/11 11:16:12;;;;;;;2.22;1.65;;;19.30;99.90;;;;;;4953846;28;20429;-70
2021/05/11 11:18:38;;;;;;;4.68;1.15;;;19.30;99.90;;;;;;4954298;28;20054;-65
2021/05/11 11:23:45;;;;;;;1.48;1.20;;;19.50;99.90;;;;;;4971483;28;20137;-67
2021/05/11 11:26:13;;;;;;;4.57;1.33;;;19.50;99.90;;;;;;4952955;28;20114;-71
2021/05/11 11:28:39;;;;;;;2.75;0.95;;;19.50;99.90;;;;;;4953986;28;20038;-65
2021/05/11 11:31:25;;;;;;;2.47;1.20;;;19.60;99.90;;;;;;4958497;28;20178;-65
2021/05/11 11:33:51;;;;;;;8.05;1.65;;;19.40;99.90;;;;;;4958861;28;20049;-65
2021/05/11 11:36:33;;;;;;;5.47;1.50;;;19.40;99.90;;;;;;4982323;28;20042;-65
2021/05/11 11:39:03;;;;;;;1.60;1.20;;;19.50;99.90;;;;;;4990002;28;20037;-68
2021/05/11 11:41:28;;;;;;;3.47;0.85;;;19.70;99.90;;;;;;4971738;28;20678;-64
2021/05/11 11:43:54;;;;;;;3.00;1.00;;;19.80;99.90;;;;;;4990477;28;20121;-64
2021/05/11 11:46:28;;;;;;;6.45;1.13;;;20.00;99.90;;;;;;4970836;28;20051;-66
2021/05/11 11:49:04;;;;;;;3.30;1.25;;;20.20;99.90;;;;;;4953014;28;20027;-63
2021/05/11 11:51:32;;;;;;;5.82;1.58;;;20.30;99.90;;;;;;4974700;28;20035;-66
2021/05/11 11:54:11;;;;;;;6.22;1.50;;;20.20;99.90;;;;;;4961798;28;20152;-64
2021/05/11 11:59:54;;;;;;;3.97;1.67;;;20.20;99.90;;;;;;4901366;29;20115;-65
2021/05/11 12:02:20;;;;;;;2.42;0.90;;;20.30;99.90;;;;;;4973975;28;20038;-65
2021/05/11 12:04:47;;;;;;;3.72;1.05;;;20.50;99.90;;;;;;4962875;28;20033;-64
2021/05/11 12:07:15;;;;;;;1.45;0.93;;;20.50;99.90;;;;;;4988506;28;20058;-73
2021/05/11 12:09:42;;;;;;;2.13;1.25;;;20.60;99.90;;;;;;4992272;28;20023;-63
2021/05/11 12:12:10;;;;;;;4.60;1.15;;;20.70;99.90;;;;;;4974659;28;20026;-64
2021/05/11 12:14:39;;;;;;;3.55;1.10;;;20.60;99.90;;;;;;4974027;28;20045;-65
2021/05/11 12:17:05;;;;;;;3.60;1.10;;;20.60;99.90;;;;;;4991308;28;20034;-63
2021/05/11 12:19:32;;;;;;;4.88;1.08;;;20.50;99.90;;;;;;4991174;28;20498;-65
2021/05/11 12:22:06;;;;;;;5.82;1.90;;;20.50;99.90;;;;;;4974060;28;20033;-64
2021/05/11 12:24:41;;;;;;;5.57;1.77;;;20.50;99.90;;;;;;4973140;28;20174;-64
2021/05/11 12:27:13;;;;;;;3.58;2.03;;;20.30;99.90;;;;;;4992248;28;20030;-64
2021/05/11 12:29:56;;;;;;;3.17;0.95;;;20.20;99.90;;;;;;4992006;28;20133;-64
2021/05/11 12:32:22;;;;;;;2.13;0.85;;;20.20;99.90;;;;;;4991255;28;20023;-65
2021/05/11 12:35:28;;;;;;;6.50;1.17;;;20.10;99.90;;;;;;4974554;28;20038;-63
2021/05/11 12:38:02;;;;;;;4.90;1.13;;;20.20;99.90;;;;;;4969880;28;20178;-63
2021/05/11 12:40:51;;;;;;;2.35;0.90;;;20.30;99.90;;;;;;4973605;28;20036;-65
2021/05/11 12:43:42;;;;;;;1.50;1.20;;;20.20;99.90;;;;;;4973175;28;20035;-63
2021/05/11 12:46:36;;;;;;;2.90;1.20;;;20.10;99.90;;;;;;4973985;28;20494;-64
2021/05/11 12:49:03;;;;;;;3.17;1.13;;;19.70;99.90;;;;;;4974281;28;20077;-63
2021/05/11 12:51:39;;;;;;;2.20;1.02;;;19.60;99.90;;;;;;4991008;28;20033;-63
2021/05/11 12:54:38;;;;;;;1.10;0.93;;;19.40;99.90;;;;;;4974343;28;20030;-63
2021/05/11 12:57:27;;;;;;;3.45;1.27;;;19.40;99.90;;;;;;4991374;28;20042;-64
2021/05/11 13:00:08;;;;;;;3.10;1.20;;;19.40;99.90;;;;;;4973589;28;20027;-63
2021/05/11 13:14:14;;;;;;;0.82;0.50;;;19.00;99.90;;;;;;4991105;28;20093;-63
2021/05/11 13:27:32;;;;;;;2.55;0.40;;;19.00;99.90;;;;;;4990064;28;20089;-63
2021/05/11 13:33:01;;;;;;;2.85;0.60;;;18.80;99.90;;;;;;4990016;28;20078;-63
2021/05/11 13:35:27;;;;;;;1.38;0.65;;;18.60;99.90;;;;;;4972056;28;20038;-63
2021/05/11 13:37:53;;;;;;;1.45;0.68;;;18.60;99.90;;;;;;4972708;28;20046;-63
2021/05/11 13:40:19;;;;;;;0.70;0.50;;;18.70;99.90;;;;;;4971852;28;20022;-67
2021/05/11 13:42:45;;;;;;;2.72;0.73;;;18.60;99.90;;;;;;4972869;28;20042;-64
2021/05/11 13:45:11;;;;;;;4.10;0.65;;;18.60;99.90;;;;;;4990188;28;20096;-62
2021/05/11 13:47:40;;;;;;;0.80;0.50;;;18.60;99.90;;;;;;4971486;28;20038;-62
2021/05/11 13:50:07;;;;;;;4.07;0.82;;;18.60;99.90;;;;;;4972677;28;20177;-63
2021/05/11 13:52:33;;;;;;;3.90;0.50;;;18.40;99.90;;;;;;4990122;28;20042;-63
2021/05/11 13:55:07;;;;;;;3.28;0.70;;;18.50;99.90;;;;;;4972593;28;20037;-63
2021/05/11 14:03:03;;;;;;;0.98;0.70;;;18.20;99.90;;;;;;4989671;28;20037;-64
2021/05/11 14:05:28;;;;;;;3.78;1.15;;;18.20;99.90;;;;;;4989586;28;20061;-64
2021/05/11 14:07:54;;;;;;;2.15;0.75;;;18.10;99.90;;;;;;4972514;28;20038;-64
2021/05/11 14:10:20;;;;;;;1.85;0.80;;;18.10;99.90;;;;;;4984555;28;20015;-63
2021/05/11 14:12:46;;;;;;;2.10;1.05;;;18.10;99.90;;;;;;4953104;28;20027;-65
2021/05/11 14:15:12;;;;;;;1.90;1.10;;;17.90;99.90;;;;;;4953667;28;20353;-64
2021/05/11 14:17:38;;;;;;;2.67;1.30;;;17.90;99.90;;;;;;4953366;28;20038;-65
2021/05/11 14:20:04;;;;;;;6.13;1.00;;;17.70;99.90;;;;;;4971072;28;20030;-63
2021/05/11 14:22:30;;;;;;;3.30;1.35;;;17.70;99.90;;;;;;4970593;28;20444;-63
2021/05/11 14:24:56;;;;;;;3.15;1.40;;;17.60;99.90;;;;;;4970790;28;20051;-64
2021/05/11 14:27:22;;;;;;;4.78;2.13;;;17.60;99.90;;;;;;4952769;28;20026;-62
2021/05/11 14:29:47;;;;;;;4.28;1.52;;;17.50;99.90;;;;;;4969838;28;20019;-63
2021/05/11 14:32:13;;;;;;;4.82;1.58;;;17.40;99.90;;;;;;4952938;28;20033;-63
2021/05/11 14:34:40;;;;;;;3.72;1.88;;;17.30;99.90;;;;;;4952191;28;20038;-62
2021/05/11 14:37:05;;;;;;;5.25;1.70;;;17.20;99.90;;;;;;4968556;28;20030;-64
2021/05/11 14:39:31;;;;;;;2.28;2.03;;;17.20;99.90;;;;;;4968705;28;20027;-63
2021/05/11 14:41:57;;;;;;;4.97;1.80;;;17.20;99.90;;;;;;4969513;28;20027;-63
2021/05/11 14:44:27;;;;;;;8.48;2.67;;;17.20;99.90;;;;;;4951779;28;20026;-64
2021/05/11 14:46:57;;;;;;;3.92;2.20;;;17.10;99.90;;;;;;4951972;28;20129;-62
2021/05/11 14:49:23;;;;;;;4.80;2.05;;;17.20;99.90;;;;;;4951227;28;20452;-62
2021/05/11 14:51:49;;;;;;;2.97;2.00;;;17.20;99.90;;;;;;4950873;28;20057;-64
2021/05/11 14:54:15;;;;;;;1.98;1.73;;;17.30;99.90;;;;;;4951496;28;20130;-62
2021/05/11 14:56:41;;;;;;;7.40;2.00;;;17.30;99.90;;;;;;4950953;28;20375;-64
2021/05/11 14:59:08;;;;;;;2.33;1.48;;;17.30;99.90;;;;;;4969525;28;20029;-63
2021/05/11 15:01:34;;;;;;;3.22;2.20;;;17.30;99.90;;;;;;4950824;28;20059;-64
2021/05/11 15:04:00;;;;;;;3.28;1.52;;;17.30;99.90;;;;;;4969164;28;20422;-64
2021/05/11 15:06:27;;;;;;;8.07;1.60;;;17.20;99.90;;;;;;4968711;28;20155;-62
2021/05/11 15:08:52;;;;;;;8.02;1.80;;;17.20;99.90;;;;;;4969561;28;20031;-63
2021/05/11 15:11:19;;;;;;;5.15;2.40;;;17.10;99.90;;;;;;4958170;28;20030;-67
2021/05/11 15:13:46;;;;;;;5.13;1.52;;;17.10;99.90;;;;;;4956465;28;20122;-61
2021/05/11 15:16:18;;;;;;;4.88;1.60;;;17.20;99.90;;;;;;4971668;28;20125;-63
2021/05/11 15:18:44;;;;;;;3.90;1.92;;;17.00;99.90;;;;;;4951008;28;20389;-64
2021/05/11 15:21:10;;;;;;;2.85;1.38;;;17.10;99.90;;;;;;4950195;28;20027;-64
2021/05/11 15:23:36;;;;;;;5.18;1.90;;;17.20;99.90;;;;;;4952033;28;20061;-63
2021/05/11 15:26:02;;;;;;;3.05;1.60;;;17.20;99.90;;;;;;4962180;28;20053;-65
2021/05/11 15:28:28;;;;;;;5.45;1.77;;;17.30;99.90;;;;;;4964561;28;20037;-62
2021/05/11 15:30:54;;;;;;;7.07;2.42;;;17.10;99.90;;;;;;4964361;28;20031;-63
2021/05/11 15:33:20;;;;;;;9.38;3.30;;;16.80;99.90;;;;;;4981476;28;20404;-67
2021/05/11 15:35:46;;;;;;;8.18;2.25;;;16.80;99.90;;;;;;4965713;28;20077;-63
2021/05/11 15:38:12;;;;;;;1.48;0.57;;;17.00;99.90;;;;;;4973007;28;20123;-63
2021/05/11 15:40:41;;;;;;;3.78;0.55;;;17.00;99.90;;;;;;4963144;28;20026;-63
2021/05/11 15:43:08;;;;;;;2.95;0.35;;;17.00;99.90;;;;;;4981172;28;20050;-66
2021/05/11 15:45:34;;;;;;;1.95;0.35;;;17.00;99.90;;;;;;4961122;28;20026;-62
2021/05/11 15:48:03;;;;;;;1.40;0.35;;;17.00;99.90;;;;;;4985118;28;20041;-63
2021/05/11 15:50:34;;;;;;;7.63;0.90;;;17.00;99.90;;;;;;4978289;28;20503;-63
2021/05/11 15:53:02;;;;;;;2.15;0.68;;;16.90;99.90;;;;;;4964117;28;20093;-62
2021/05/11 15:55:30;;;;;;;1.67;0.40;;;16.80;99.90;;;;;;4970789;28;20034;-62
2021/05/11 15:57:56;;;;;;;1.67;0.60;;;16.70;99.90;;;;;;4962686;28;20447;-64
2021/05/11 16:00:22;;;;;;;3.95;0.68;;;16.60;99.90;;;;;;4964737;28;20050;-67
2021/05/11 16:02:48;;;;;;;2.50;0.80;;;16.50;99.90;;;;;;4960946;28;20441;-62
2021/05/11 16:05:17;;;;;;;1.52;0.40;;;16.50;99.90;;;;;;4963788;28;20415;-65
2021/05/11 16:07:43;;;;;;;3.72;1.27;;;16.40;99.90;;;;;;4983095;28;20043;-62
2021/05/11 16:10:09;;;;;;;1.38;0.50;;;16.40;99.90;;;;;;4983445;28;20395;-64
2021/05/11 16:12:38;;;;;;;1.10;0.30;;;16.30;99.90;;;;;;4978417;28;20031;-64
2021/05/11 16:15:15;;;;;;;1.30;0.60;;;16.20;99.90;;;;;;4972939;28;20037;-64
2021/05/11 16:17:42;;;;;;;1.05;0.60;;;16.30;99.90;;;;;;4970167;28;20061;-64
2021/05/11 16:20:10;;;;;;;6.13;0.90;;;16.30;99.90;;;;;;4955338;28;20035;-64
2021/05/11 16:22:37;;;;;;;2.15;0.70;;;16.40;99.90;;;;;;4953905;28;20030;-64
2021/05/11 16:25:05;;;;;;;4.00;0.82;;;16.40;99.90;;;;;;4972026;28;20059;-63
2021/05/11 16:27:32;;;;;;;4.95;0.98;;;16.40;99.90;;;;;;4956926;28;20096;-63
2021/05/11 16:29:57;;;;;;;0.70;0.60;;;16.50;99.90;;;;;;4963783;28;20042;-63
2021/05/11 16:32:24;;;;;;;2.28;0.80;;;16.40;99.90;;;;;;4978600;28;20113;-62
2021/05/11 16:34:50;;;;;;;3.58;0.93;;;16.40;99.90;;;;;;4962328;28;20468;-63
2021/05/11 16:37:15;;;;;;;3.38;0.60;;;16.40;99.90;;;;;;4965892;28;20030;-64
2021/05/11 16:39:42;;;;;;;3.50;0.70;;;16.40;99.90;;;;;;4960545;28;20158;-63
2021/05/11 16:42:08;;;;;;;2.75;0.95;;;16.40;99.90;;;;;;4980489;28;20022;-63
2021/05/11 16:44:35;;;;;;;3.55;0.88;;;16.40;99.90;;;;;;4961235;28;20523;-64
2021/05/11 16:47:02;;;;;;;3.03;0.95;;;16.30;99.90;;;;;;4961440;28;20125;-62
2021/05/11 16:49:28;;;;;;;4.00;0.85;;;16.30;99.90;;;;;;4963709;28;20023;-62
2021/05/11 16:51:54;;;;;;;1.52;0.55;;;16.30;99.90;;;;;;4962438;28;20432;-62
2021/05/11 16:54:19;;;;;;;1.50;0.68;;;16.30;99.90;;;;;;4979930;28;20058;-66
2021/05/11 16:56:45;;;;;;;0.90;0.57;;;16.30;99.90;;;;;;4973392;28;20027;-63
2021/05/11 16:59:11;;;;;;;0.90;0.35;;;16.20;99.90;;;;;;4959518;28;20109;-63
2021/05/11 17:01:38;;;;;;;1.02;0.57;;;16.20;99.90;;;;;;4958222;28;20037;-63
2021/05/11 17:04:04;;;;;;;1.85;0.43;;;16.10;99.90;;;;;;4953818;28;20057;-63
2021/05/11 17:06:33;;;;;;;1.05;0.60;;;16.20;99.90;;;;;;4963709;28;20183;-65
2021/05/11 17:09:01;;;;;;;1.75;0.93;;;16.10;99.90;;;;;;4962213;28;20042;-62
2021/05/11 17:11:30;;;;;;;2.45;0.40;;;16.10;99.90;;;;;;4959106;28;20030;-62
2021/05/11 17:13:57;;;;;;;2.33;0.50;;;16.10;99.90;;;;;;4961389;28;20026;-62
2021/05/11 17:16:23;;;;;;;0.88;0.80;;;16.20;99.90;;;;;;4980205;28;20031;-66
2021/05/11 17:18:49;;;;;;;1.30;0.40;;;16.10;99.90;;;;;;4960064;28;20097;-62